Time;durP1;ratioP1;P1;durP2;ratioP2;P2;SDS_P1;SDS_P2;PMS_P1;PMS_P2;Temp;Humidity;BMP_temperature;BMP_pressure;BME280_temperature;BME280_humidity;BME280_pressure;Samples;Min_cycle;Max_cycle;Signal;HPM_P1;HPM_P2
2023/04/13 00:00:47;;;;;;;1.83;0.77;;;7.00;99.90;;;;;;5073857;28;20205;-59
2023/04/13 00:03:15;;;;;;;1.03;0.50;;;7.00;99.90;;;;;;5070497;28;20277;-59
2023/04/13 00:05:45;;;;;;;2.00;0.80;;;6.90;99.90;;;;;;5076437;28;20214;-59
2023/04/13 00:08:13;;;;;;;1.50;0.50;;;6.90;99.90;;;;;;5074242;28;20198;-61
2023/04/13 00:10:40;;;;;;;1.37;0.57;;;7.00;99.90;;;;;;5058299;28;20707;-59
2023/04/13 00:13:09;;;;;;;2.10;0.50;;;6.90;99.90;;;;;;5074777;28;20207;-58
2023/04/13 00:15:40;;;;;;;0.73;0.73;;;6.90;99.90;;;;;;5061108;28;20648;-58
2023/04/13 00:18:09;;;;;;;0.67;0.60;;;6.90;99.90;;;;;;5068953;28;20262;-58
2023/04/13 00:20:37;;;;;;;1.23;0.60;;;6.90;99.90;;;;;;5071775;28;20337;-58
2023/04/13 00:23:04;;;;;;;4.27;0.80;;;6.90;99.90;;;;;;5071569;28;20226;-59
2023/04/13 00:25:31;;;;;;;3.00;1.17;;;6.90;99.90;;;;;;5070179;28;20199;-59
2023/04/13 00:28:02;;;;;;;0.40;0.40;;;6.90;99.90;;;;;;5069719;28;20203;-58
2023/04/13 00:30:29;;;;;;;2.03;0.73;;;6.90;99.90;;;;;;5072084;28;20203;-59
2023/04/13 00:32:56;;;;;;;1.07;0.40;;;6.90;99.90;;;;;;5054814;28;20216;-59
2023/04/13 00:35:26;;;;;;;2.10;0.80;;;6.90;99.90;;;;;;5072495;28;20210;-61
2023/04/13 00:37:53;;;;;;;1.50;0.70;;;6.90;99.90;;;;;;5066934;28;20292;-58
2023/04/13 00:40:20;;;;;;;0.60;0.40;;;6.90;99.90;;;;;;5072639;28;20253;-59
2023/04/13 00:42:48;;;;;;;1.87;0.87;;;6.90;99.90;;;;;;5063544;28;20252;-58
2023/04/13 00:45:16;;;;;;;1.77;0.70;;;6.90;99.90;;;;;;5073856;28;20218;-59
2023/04/13 00:47:46;;;;;;;1.50;0.80;;;6.90;99.90;;;;;;5071436;28;20219;-58
2023/04/13 00:50:16;;;;;;;0.70;0.60;;;6.90;99.90;;;;;;5070382;28;20205;-58
2023/04/13 00:52:44;;;;;;;6.23;1.13;;;6.90;99.90;;;;;;5072391;28;20858;-58
2023/04/13 00:55:11;;;;;;;0.57;0.50;;;6.90;99.90;;;;;;5056348;28;20312;-59
2023/04/13 00:57:39;;;;;;;2.63;1.10;;;6.90;99.90;;;;;;5074359;28;20207;-58
2023/04/13 01:00:08;;;;;;;0.97;0.60;;;6.90;99.90;;;;;;5075641;28;20643;-58
2023/04/13 01:02:40;;;;;;;1.50;0.60;;;6.90;99.90;;;;;;5070994;28;20208;-61
2023/04/13 01:05:11;;;;;;;4.33;0.80;;;6.90;99.90;;;;;;5071584;28;20568;-59
2023/04/13 01:07:50;;;;;;;1.23;0.73;;;6.90;99.90;;;;;;5070916;28;20222;-58
2023/04/13 01:10:27;;;;;;;3.80;0.60;;;7.00;99.90;;;;;;5072340;28;20190;-60
2023/04/13 01:13:29;;;;;;;5.80;0.90;;;7.00;99.90;;;;;;5073797;28;20239;-59
2023/04/13 01:16:14;;;;;;;3.80;0.60;;;7.00;99.90;;;;;;5020362;28;20268;-59
2023/04/13 01:18:44;;;;;;;3.37;0.93;;;7.00;99.90;;;;;;5062431;28;20229;-59
2023/04/13 01:21:18;;;;;;;1.67;0.70;;;7.00;99.90;;;;;;5074371;28;20287;-59
2023/04/13 01:24:15;;;;;;;2.10;0.80;;;6.90;99.90;;;;;;5053058;28;20226;-59
2023/04/13 01:26:56;;;;;;;2.63;0.97;;;6.90;99.90;;;;;;5056030;28;20197;-59
2023/04/13 01:29:25;;;;;;;2.40;0.73;;;7.00;99.90;;;;;;5072742;28;20205;-59
2023/04/13 01:31:53;;;;;;;4.13;0.77;;;6.90;99.90;;;;;;5074207;28;20282;-59
2023/04/13 01:34:22;;;;;;;1.23;1.07;;;6.90;99.90;;;;;;5074376;28;20345;-59
2023/04/13 01:36:49;;;;;;;3.10;0.73;;;6.90;99.90;;;;;;5073320;28;20278;-59
2023/04/13 01:39:20;;;;;;;4.10;0.53;;;6.90;99.90;;;;;;5053046;28;20246;-59
2023/04/13 01:41:48;;;;;;;0.93;0.50;;;6.90;99.90;;;;;;5059593;28;20218;-59
2023/04/13 01:44:14;;;;;;;2.97;0.80;;;6.90;99.90;;;;;;5056775;28;20260;-59
2023/04/13 01:46:46;;;;;;;1.17;0.60;;;7.00;99.90;;;;;;5073589;28;20213;-59
2023/04/13 01:49:18;;;;;;;5.30;1.10;;;7.00;99.90;;;;;;5069744;28;20195;-59
2023/04/13 01:51:47;;;;;;;2.40;0.90;;;7.10;99.90;;;;;;5067082;28;20197;-59
2023/04/13 01:54:19;;;;;;;2.10;0.93;;;7.10;99.90;;;;;;5069613;28;20299;-59
2023/04/13 01:56:47;;;;;;;1.60;0.57;;;7.00;99.90;;;;;;5071598;28;20211;-59
2023/04/13 01:59:15;;;;;;;1.07;0.60;;;7.00;99.90;;;;;;5072982;28;20486;-58
2023/04/13 02:01:42;;;;;;;4.50;0.73;;;7.00;99.90;;;;;;5062423;28;20576;-58
2023/04/13 02:04:09;;;;;;;1.03;0.80;;;7.00;99.90;;;;;;5074472;28;20628;-59
2023/04/13 02:06:36;;;;;;;8.17;1.20;;;7.10;99.90;;;;;;5070278;28;20273;-59
2023/04/13 02:09:05;;;;;;;1.63;0.73;;;7.10;99.90;;;;;;5073311;28;20679;-59
2023/04/13 02:11:34;;;;;;;1.73;0.90;;;7.00;99.90;;;;;;5055047;28;20749;-60
2023/04/13 02:14:01;;;;;;;3.00;0.90;;;7.10;99.90;;;;;;5071714;28;20220;-59
2023/04/13 02:16:28;;;;;;;1.40;1.20;;;7.10;99.90;;;;;;5052491;28;20294;-58
2023/04/13 02:18:57;;;;;;;0.70;0.70;;;7.10;99.90;;;;;;5074548;28;20237;-59
2023/04/13 02:21:24;;;;;;;2.13;1.10;;;7.10;99.90;;;;;;5061256;28;20597;-59
2023/04/13 02:23:51;;;;;;;2.50;0.90;;;7.00;99.90;;;;;;5069389;28;21092;-62
2023/04/13 02:26:18;;;;;;;2.43;1.20;;;7.00;99.90;;;;;;5075968;28;20196;-59
2023/04/13 02:28:46;;;;;;;1.50;1.03;;;7.00;99.90;;;;;;5074479;28;20195;-60
2023/04/13 02:31:16;;;;;;;2.33;1.33;;;7.00;99.90;;;;;;5077165;28;20579;-60
2023/04/13 02:33:43;;;;;;;3.50;1.00;;;6.90;99.90;;;;;;5074248;28;20208;-59
2023/04/13 02:36:10;;;;;;;3.67;1.07;;;6.90;99.90;;;;;;5075347;28;20573;-58
2023/04/13 02:38:37;;;;;;;3.03;1.37;;;6.90;99.90;;;;;;5073039;28;20205;-59
2023/04/13 02:41:05;;;;;;;1.77;1.03;;;6.90;99.90;;;;;;5071443;28;20333;-59
2023/04/13 02:43:33;;;;;;;3.07;1.47;;;6.90;99.90;;;;;;5075748;28;20219;-60
2023/04/13 02:46:00;;;;;;;4.70;1.30;;;6.90;99.90;;;;;;5067610;28;20759;-59
2023/04/13 02:48:27;;;;;;;3.17;1.10;;;6.90;99.90;;;;;;5078479;28;20559;-59
2023/04/13 02:50:54;;;;;;;3.47;1.10;;;6.90;99.90;;;;;;5070843;28;20858;-58
2023/04/13 02:53:22;;;;;;;3.83;1.33;;;6.90;99.90;;;;;;5055322;28;20220;-59
2023/04/13 02:55:49;;;;;;;4.20;1.40;;;6.80;99.90;;;;;;5075656;28;20211;-59
2023/04/13 02:58:16;;;;;;;2.20;1.10;;;6.80;99.90;;;;;;5072738;28;20763;-61
2023/04/13 03:00:43;;;;;;;3.60;1.27;;;6.80;99.90;;;;;;5058302;28;20649;-59
2023/04/13 03:03:10;;;;;;;1.87;1.00;;;6.80;99.90;;;;;;5074537;28;20305;-59
2023/04/13 03:05:37;;;;;;;4.07;1.10;;;6.80;99.90;;;;;;5071802;28;20229;-59
2023/04/13 03:08:05;;;;;;;1.93;1.07;;;6.80;99.90;;;;;;5073539;28;20207;-58
2023/04/13 03:10:32;;;;;;;1.73;0.80;;;6.80;99.90;;;;;;5073469;28;20674;-58
2023/04/13 03:12:58;;;;;;;1.93;0.70;;;6.80;99.90;;;;;;5073376;28;20226;-59
2023/04/13 03:15:25;;;;;;;1.67;1.10;;;6.70;99.90;;;;;;5072405;28;20233;-59
2023/04/13 03:17:52;;;;;;;1.50;0.60;;;6.70;99.90;;;;;;5074496;28;20319;-59
2023/04/13 03:20:20;;;;;;;0.87;0.63;;;6.70;99.90;;;;;;5072080;28;20301;-59
2023/04/13 03:22:46;;;;;;;2.07;0.90;;;6.70;99.90;;;;;;5071841;28;20296;-59
2023/04/13 03:25:13;;;;;;;4.63;0.57;;;6.70;99.90;;;;;;5074623;28;20205;-59
2023/04/13 03:27:40;;;;;;;2.80;0.90;;;6.60;99.90;;;;;;5071829;28;20206;-59
2023/04/13 03:30:08;;;;;;;2.33;1.10;;;6.60;99.90;;;;;;5071550;28;21329;-63
2023/04/13 03:32:35;;;;;;;1.33;0.90;;;6.60;99.90;;;;;;5062321;28;20296;-59
2023/04/13 03:35:02;;;;;;;2.30;1.07;;;6.60;99.90;;;;;;5073255;28;20208;-59
2023/04/13 03:37:31;;;;;;;3.07;1.13;;;6.60;99.90;;;;;;5075502;28;20197;-59
2023/04/13 03:39:58;;;;;;;3.47;1.50;;;6.60;99.90;;;;;;5059469;28;20318;-59
2023/04/13 03:42:25;;;;;;;3.73;1.60;;;6.60;99.90;;;;;;5072836;28;20215;-62
2023/04/13 03:44:52;;;;;;;2.47;1.43;;;6.60;99.90;;;;;;5072371;28;20250;-59
2023/04/13 03:47:19;;;;;;;3.70;1.30;;;6.70;99.90;;;;;;5069894;28;20191;-59
2023/04/13 03:49:46;;;;;;;3.57;2.20;;;6.70;99.90;;;;;;5072831;28;20569;-60
2023/04/13 03:52:13;;;;;;;7.33;1.97;;;6.70;99.90;;;;;;5073272;28;20197;-59
2023/04/13 03:54:40;;;;;;;4.83;2.57;;;6.70;99.90;;;;;;5072343;28;20224;-59
2023/04/13 03:57:07;;;;;;;7.17;2.60;;;6.70;99.90;;;;;;5075873;28;20199;-59
2023/04/13 03:59:34;;;;;;;5.63;2.80;;;6.70;99.90;;;;;;5074489;28;20669;-59
2023/04/13 04:02:03;;;;;;;6.33;2.67;;;6.70;99.90;;;;;;5069972;28;20381;-59
2023/04/13 04:04:30;;;;;;;5.60;2.70;;;6.80;99.90;;;;;;5072690;28;20656;-60
2023/04/13 04:06:58;;;;;;;7.00;3.33;;;6.70;99.90;;;;;;5074526;28;20920;-60
2023/04/13 04:09:25;;;;;;;6.47;3.57;;;6.70;99.90;;;;;;5056143;28;20217;-59
2023/04/13 04:11:51;;;;;;;5.93;3.70;;;6.70;99.90;;;;;;5074407;28;20581;-59
2023/04/13 04:14:19;;;;;;;7.23;3.97;;;6.70;99.90;;;;;;5073039;28;20204;-59
2023/04/13 04:16:46;;;;;;;8.33;3.53;;;6.70;99.90;;;;;;5074626;28;20566;-60
2023/04/13 04:19:13;;;;;;;5.77;3.47;;;6.80;99.90;;;;;;5071408;28;20240;-59
2023/04/13 04:21:45;;;;;;;7.10;3.67;;;6.80;99.90;;;;;;5069237;28;20288;-59
2023/04/13 04:24:19;;;;;;;9.07;4.00;;;6.80;99.90;;;;;;5067764;28;20234;-59
2023/04/13 04:26:49;;;;;;;8.07;4.20;;;6.80;99.90;;;;;;5073299;28;20208;-59
2023/04/13 04:29:20;;;;;;;10.70;4.57;;;6.80;99.90;;;;;;5073047;28;20617;-60
2023/04/13 04:31:52;;;;;;;10.90;4.37;;;6.80;99.90;;;;;;5074798;28;20239;-59
2023/04/13 04:34:19;;;;;;;8.60;3.90;;;6.80;99.90;;;;;;5072976;28;20281;-59
2023/04/13 04:36:50;;;;;;;13.00;4.00;;;6.80;99.90;;;;;;5074495;28;20245;-59
2023/04/13 04:39:21;;;;;;;8.03;4.23;;;6.80;99.90;;;;;;5073515;28;20204;-59
2023/04/13 04:41:53;;;;;;;8.23;4.03;;;6.80;99.90;;;;;;5072875;28;20724;-59
2023/04/13 04:44:23;;;;;;;7.97;3.60;;;6.80;99.90;;;;;;5072894;28;20222;-61
2023/04/13 04:46:51;;;;;;;10.73;4.10;;;6.90;99.90;;;;;;5051432;28;20204;-59
2023/04/13 04:49:20;;;;;;;7.93;4.10;;;6.90;99.90;;;;;;5070124;28;20203;-59
2023/04/13 04:51:48;;;;;;;9.87;3.87;;;6.90;99.90;;;;;;5066952;28;20209;-59
2023/04/13 04:54:16;;;;;;;6.60;4.03;;;6.80;99.90;;;;;;5053260;28;20220;-59
2023/04/13 04:56:44;;;;;;;6.00;3.33;;;6.90;99.90;;;;;;5072274;28;20238;-59
2023/04/13 04:59:11;;;;;;;7.00;3.57;;;6.80;99.90;;;;;;5072547;28;20199;-59
2023/04/13 05:01:39;;;;;;;7.30;3.30;;;6.80;99.90;;;;;;5070684;28;20202;-59
2023/04/13 05:04:06;;;;;;;5.60;3.30;;;6.90;99.90;;;;;;5072280;28;20238;-59
2023/04/13 05:06:33;;;;;;;4.80;2.73;;;6.90;99.90;;;;;;5071332;28;20602;-59
2023/04/13 05:09:03;;;;;;;6.47;3.40;;;6.90;99.90;;;;;;5053506;28;20747;-59
2023/04/13 05:11:31;;;;;;;5.47;3.03;;;6.90;99.90;;;;;;5073597;28;20583;-59
2023/04/13 05:13:58;;;;;;;8.33;3.70;;;6.90;99.90;;;;;;5070287;28;20234;-59
2023/04/13 05:16:29;;;;;;;5.87;3.27;;;6.90;99.90;;;;;;5052519;28;20460;-59
2023/04/13 05:18:56;;;;;;;4.90;3.00;;;6.90;99.90;;;;;;5069082;28;20229;-60
2023/04/13 05:21:23;;;;;;;7.87;3.50;;;6.90;99.90;;;;;;5069566;28;20204;-60
2023/04/13 05:23:50;;;;;;;7.40;3.87;;;7.00;99.90;;;;;;5068207;28;20275;-60
2023/04/13 05:26:19;;;;;;;7.43;3.73;;;7.00;99.90;;;;;;5057265;28;20266;-59
2023/04/13 05:28:46;;;;;;;7.37;3.53;;;7.10;99.90;;;;;;5074319;28;20214;-60
2023/04/13 05:31:14;;;;;;;6.87;4.23;;;7.00;99.90;;;;;;5066399;28;20193;-59
2023/04/13 05:33:41;;;;;;;6.47;4.07;;;7.00;99.90;;;;;;5070681;28;20253;-59
2023/04/13 05:36:08;;;;;;;6.50;4.23;;;7.10;99.90;;;;;;5069890;28;20772;-60
2023/04/13 05:38:35;;;;;;;13.27;5.03;;;7.00;99.90;;;;;;5070111;28;20205;-59
2023/04/13 05:41:02;;;;;;;8.23;3.93;;;7.00;99.90;;;;;;5053153;28;20304;-59
2023/04/13 05:43:29;;;;;;;10.43;4.43;;;7.00;99.90;;;;;;5069346;28;20287;-62
2023/04/13 05:45:56;;;;;;;8.70;4.70;;;7.00;99.90;;;;;;5066895;28;20199;-59
2023/04/13 05:48:23;;;;;;;12.47;4.70;;;7.00;99.90;;;;;;5068923;28;20201;-59
2023/04/13 05:50:50;;;;;;;8.47;4.00;;;7.10;99.90;;;;;;5069607;28;20245;-59
2023/04/13 05:53:17;;;;;;;11.47;4.33;;;7.10;99.90;;;;;;5051788;28;20912;-59
2023/04/13 05:55:44;;;;;;;7.90;3.37;;;7.10;99.90;;;;;;5059258;28;20220;-59
2023/04/13 05:58:14;;;;;;;7.77;3.50;;;7.00;99.90;;;;;;4697417;28;10000272;-59
2023/04/13 06:00:41;;;;;;;6.57;3.63;;;7.10;99.90;;;;;;5049213;28;20212;-59
2023/04/13 06:03:09;;;;;;;9.33;3.07;;;7.00;99.90;;;;;;5047568;28;20569;-59
2023/04/13 06:05:37;;;;;;;6.30;2.63;;;7.10;99.90;;;;;;5071272;28;20202;-63
2023/04/13 06:08:04;;;;;;;5.13;2.57;;;7.10;99.90;;;;;;5056070;28;20622;-59
2023/04/13 06:10:31;;;;;;;4.90;2.80;;;7.10;99.90;;;;;;5074040;28;20206;-59
2023/04/13 06:12:58;;;;;;;9.37;3.13;;;7.10;99.90;;;;;;5073208;28;21220;-59
2023/04/13 06:15:25;;;;;;;4.50;2.60;;;7.10;99.90;;;;;;5071923;28;20205;-63
2023/04/13 06:17:52;;;;;;;9.20;3.63;;;7.10;99.90;;;;;;5065167;28;20318;-59
2023/04/13 06:20:20;;;;;;;6.70;2.50;;;7.10;99.90;;;;;;5069670;28;20730;-59
2023/04/13 06:22:48;;;;;;;8.43;3.13;;;7.20;99.90;;;;;;5069913;28;23289;-59
2023/04/13 06:25:15;;;;;;;5.30;2.77;;;7.20;99.90;;;;;;5072253;28;20219;-59
2023/04/13 06:27:42;;;;;;;6.10;2.83;;;7.20;99.90;;;;;;5073696;28;20204;-59
2023/04/13 06:30:10;;;;;;;7.03;2.90;;;7.20;99.90;;;;;;5065465;28;20200;-59
2023/04/13 06:32:38;;;;;;;6.07;2.60;;;7.10;99.90;;;;;;5068820;28;20287;-59
2023/04/13 06:35:05;;;;;;;4.27;2.67;;;7.10;99.90;;;;;;5055782;28;20209;-59
2023/04/13 06:37:34;;;;;;;6.43;3.30;;;7.00;99.90;;;;;;5074971;28;20245;-59
2023/04/13 06:40:13;;;;;;;10.50;3.33;;;6.90;99.90;;;;;;5073949;28;20238;-61
2023/04/13 06:42:41;;;;;;;6.27;2.47;;;7.00;99.90;;;;;;5075487;28;20303;-59
2023/04/13 06:45:10;;;;;;;6.03;2.83;;;7.10;99.90;;;;;;5074865;28;20273;-58
2023/04/13 06:47:41;;;;;;;7.37;3.80;;;7.10;99.90;;;;;;5056147;28;20291;-59
2023/04/13 06:50:12;;;;;;;8.10;4.03;;;7.20;99.90;;;;;;5075426;28;20203;-59
2023/04/13 06:52:45;;;;;;;7.53;3.70;;;7.20;99.90;;;;;;5065782;28;20210;-59
2023/04/13 06:55:12;;;;;;;4.90;3.70;;;7.20;99.90;;;;;;5066947;28;20201;-59
2023/04/13 06:57:40;;;;;;;6.63;3.50;;;7.20;99.90;;;;;;5065880;28;20226;-59
2023/04/13 07:00:09;;;;;;;7.23;3.87;;;7.30;99.90;;;;;;5054361;28;20219;-63
2023/04/13 07:02:54;;;;;;;6.87;3.13;;;7.20;99.90;;;;;;5050577;28;20239;-59
2023/04/13 07:05:21;;;;;;;7.53;4.00;;;7.30;99.90;;;;;;5067794;28;20590;-59
2023/04/13 07:07:48;;;;;;;6.03;2.63;;;7.30;99.90;;;;;;5073638;28;20261;-63
2023/04/13 07:10:15;;;;;;;9.90;3.97;;;7.40;99.90;;;;;;5067630;28;20205;-61
2023/04/13 07:12:42;;;;;;;7.33;3.10;;;7.50;99.90;;;;;;5067098;28;20285;-60
2023/04/13 07:15:09;;;;;;;4.67;3.03;;;7.50;99.90;;;;;;5065144;28;20597;-60
2023/04/13 07:17:36;;;;;;;6.50;2.80;;;7.60;99.90;;;;;;5062807;28;20216;-59
2023/04/13 07:20:04;;;;;;;6.80;3.07;;;7.60;99.90;;;;;;5068953;28;20198;-60
2023/04/13 07:22:32;;;;;;;8.03;2.83;;;7.70;99.90;;;;;;5067329;28;20192;-59
2023/04/13 07:24:59;;;;;;;9.80;2.57;;;7.70;99.90;;;;;;5068937;28;20221;-59
2023/04/13 07:27:26;;;;;;;9.43;3.07;;;7.80;99.90;;;;;;5065826;28;20850;-59
2023/04/13 07:29:54;;;;;;;8.10;2.73;;;7.90;99.90;;;;;;5063179;28;20282;-59
2023/04/13 07:32:21;;;;;;;10.17;2.50;;;7.90;99.90;;;;;;5062876;28;20313;-59
2023/04/13 07:35:00;;;;;;;7.53;2.43;;;7.80;99.90;;;;;;5048049;28;20202;-59
2023/04/13 07:37:27;;;;;;;6.17;2.47;;;7.90;99.90;;;;;;5066430;28;21041;-59
2023/04/13 07:39:54;;;;;;;7.73;2.30;;;8.00;99.90;;;;;;5051792;28;20313;-60
2023/04/13 07:42:20;;;;;;;4.97;2.00;;;8.00;99.90;;;;;;5065132;28;20692;-60
2023/04/13 07:44:47;;;;;;;6.20;2.17;;;8.10;99.90;;;;;;5067930;28;20326;-60
2023/04/13 07:47:15;;;;;;;6.07;1.97;;;8.10;99.90;;;;;;5070820;28;20297;-61
2023/04/13 07:49:42;;;;;;;4.07;1.93;;;8.10;99.90;;;;;;5063840;28;20394;-59
2023/04/13 07:52:09;;;;;;;9.93;2.00;;;8.20;99.90;;;;;;5068688;28;20297;-58
2023/04/13 07:54:36;;;;;;;10.43;2.20;;;8.30;99.90;;;;;;5073765;28;20210;-58
2023/04/13 07:57:03;;;;;;;7.07;2.13;;;8.20;99.90;;;;;;5054415;28;20298;-59
2023/04/13 07:59:30;;;;;;;6.67;1.90;;;8.30;99.90;;;;;;5071176;28;20275;-59
2023/04/13 08:01:57;;;;;;;9.30;2.30;;;8.50;99.90;;;;;;5068396;28;20235;-65
2023/04/13 08:04:24;;;;;;;11.37;2.20;;;8.50;99.90;;;;;;5044130;28;20225;-60
2023/04/13 08:06:52;;;;;;;2.70;1.60;;;8.70;99.90;;;;;;5072382;28;20235;-59
2023/04/13 08:09:19;;;;;;;9.13;2.30;;;9.00;99.90;;;;;;5072378;28;20233;-59
2023/04/13 08:11:48;;;;;;;5.23;1.90;;;9.00;99.90;;;;;;5072406;28;20267;-59
2023/04/13 08:14:15;;;;;;;7.83;2.00;;;8.80;99.90;;;;;;5070906;28;20717;-60
2023/04/13 08:16:42;;;;;;;6.10;2.10;;;8.80;99.90;;;;;;5072032;28;20677;-59
2023/04/13 08:19:09;;;;;;;8.17;1.80;;;8.90;99.90;;;;;;5071954;28;20285;-59
2023/04/13 08:21:39;;;;;;;8.53;2.10;;;8.80;99.90;;;;;;5071833;28;20264;-60
2023/04/13 08:24:06;;;;;;;6.50;2.13;;;8.90;99.90;;;;;;5064201;28;20247;-60
2023/04/13 08:26:33;;;;;;;8.13;1.73;;;9.00;99.90;;;;;;5073082;28;20230;-59
2023/04/13 08:29:00;;;;;;;9.60;1.80;;;9.10;99.90;;;;;;5053447;28;20214;-62
2023/04/13 08:31:27;;;;;;;9.60;1.93;;;9.10;99.90;;;;;;5072633;28;20658;-59
2023/04/13 08:33:54;;;;;;;8.07;1.90;;;9.10;99.90;;;;;;5070731;28;20291;-59
2023/04/13 08:36:23;;;;;;;9.60;1.97;;;9.20;99.90;;;;;;5072163;28;20232;-59
2023/04/13 08:38:50;;;;;;;6.87;1.93;;;9.20;99.90;;;;;;5070159;28;20278;-60
2023/04/13 08:41:17;;;;;;;10.67;2.50;;;8.90;99.90;;;;;;5068993;28;20712;-59
2023/04/13 08:43:45;;;;;;;8.90;2.13;;;8.80;99.90;;;;;;5070904;28;20207;-59
2023/04/13 08:46:18;;;;;;;7.00;1.90;;;8.70;99.90;;;;;;5055064;28;20301;-59
2023/04/13 08:48:45;;;;;;;12.67;2.57;;;8.70;99.90;;;;;;5075532;28;20838;-59
2023/04/13 08:51:31;;;;;;;9.57;1.97;;;8.70;99.90;;;;;;5074099;28;20196;-60
2023/04/13 08:53:58;;;;;;;7.83;2.10;;;8.80;99.90;;;;;;5069628;28;20258;-59
2023/04/13 08:56:27;;;;;;;11.63;1.70;;;8.80;99.90;;;;;;5072816;28;20547;-58
2023/04/13 08:59:11;;;;;;;6.33;1.67;;;8.90;99.90;;;;;;5074749;28;20197;-58
2023/04/13 09:01:40;;;;;;;10.87;1.83;;;8.80;99.90;;;;;;5071329;28;20205;-59
2023/04/13 09:04:09;;;;;;;7.87;1.70;;;8.90;99.90;;;;;;5057395;28;20193;-62
2023/04/13 09:06:40;;;;;;;7.73;1.53;;;9.00;99.90;;;;;;5075416;28;20204;-59
2023/04/13 09:09:09;;;;;;;8.67;1.63;;;9.20;99.90;;;;;;5073202;28;20569;-59
2023/04/13 09:11:37;;;;;;;10.73;2.03;;;9.20;99.90;;;;;;5071791;28;20205;-59
2023/04/13 09:14:04;;;;;;;8.33;1.77;;;9.20;99.90;;;;;;5074048;28;20821;-59
2023/04/13 09:16:41;;;;;;;8.97;2.23;;;9.20;99.90;;;;;;5074567;28;20201;-59
2023/04/13 09:19:10;;;;;;;6.80;1.67;;;9.30;99.90;;;;;;5059324;28;20230;-59
2023/04/13 09:21:42;;;;;;;7.77;1.80;;;9.30;99.90;;;;;;5072304;28;20626;-59
2023/04/13 09:24:09;;;;;;;10.07;1.80;;;9.30;99.90;;;;;;5070529;28;20202;-60
2023/04/13 09:26:41;;;;;;;9.07;1.57;;;9.50;99.90;;;;;;5075083;28;20210;-59
2023/04/13 09:29:20;;;;;;;8.80;1.77;;;9.80;99.90;;;;;;5072527;28;20204;-59
2023/04/13 09:31:47;;;;;;;9.40;1.77;;;10.00;99.90;;;;;;5056544;28;20194;-59
2023/04/13 09:34:26;;;;;;;9.20;1.90;;;9.80;99.90;;;;;;5077463;28;20706;-59
2023/04/13 09:36:53;;;;;;;4.63;1.37;;;9.90;99.90;;;;;;5083384;28;20190;-59
2023/04/13 09:39:25;;;;;;;7.50;1.60;;;9.90;99.90;;;;;;5063790;28;20195;-59
2023/04/13 09:41:53;;;;;;;8.33;2.00;;;9.90;99.90;;;;;;5078895;28;20205;-59
2023/04/13 09:44:26;;;;;;;7.90;2.13;;;10.30;99.90;;;;;;5078705;28;20226;-59
2023/04/13 09:47:02;;;;;;;9.27;1.30;;;10.40;99.90;;;;;;5079713;28;20255;-59
2023/04/13 09:49:41;;;;;;;4.10;1.37;;;10.40;99.90;;;;;;5079188;28;20845;-59
2023/04/13 09:52:38;;;;;;;12.00;1.90;;;10.40;99.90;;;;;;5079100;28;20307;-59
2023/04/13 09:55:15;;;;;;;8.37;1.50;;;10.10;99.90;;;;;;5058229;28;20586;-59
2023/04/13 09:57:42;;;;;;;13.70;2.17;;;10.30;99.90;;;;;;5064837;28;20209;-59
2023/04/13 10:00:20;;;;;;;6.60;1.67;;;10.40;99.90;;;;;;5078211;28;20665;-59
2023/04/13 10:02:49;;;;;;;6.23;1.80;;;10.20;99.90;;;;;;5072872;28;20206;-59
2023/04/13 10:05:18;;;;;;;5.43;1.63;;;10.10;99.90;;;;;;5076641;28;20218;-59
2023/04/13 10:07:46;;;;;;;8.47;1.43;;;10.10;99.90;;;;;;5063961;28;20208;-59
2023/04/13 10:10:13;;;;;;;4.73;1.80;;;10.00;99.90;;;;;;5080319;28;20283;-59
2023/04/13 10:12:46;;;;;;;6.03;1.63;;;9.70;99.90;;;;;;5081471;28;20207;-59
2023/04/13 10:15:41;;;;;;;8.50;1.73;;;9.70;99.90;;;;;;5077010;28;20255;-59
2023/04/13 10:18:34;;;;;;;6.73;1.73;;;9.70;99.90;;;;;;5076555;28;20822;-59
2023/04/13 10:21:02;;;;;;;10.87;1.50;;;9.70;99.90;;;;;;5081469;28;20543;-59
2023/04/13 10:23:31;;;;;;;12.03;2.00;;;9.60;99.90;;;;;;5079134;28;20555;-59
2023/04/13 10:25:59;;;;;;;10.00;1.67;;;9.70;99.90;;;;;;5080262;28;20211;-59
2023/04/13 10:28:26;;;;;;;6.57;1.27;;;9.70;99.90;;;;;;5079560;28;20207;-60
2023/04/13 10:30:53;;;;;;;6.83;1.50;;;9.70;99.90;;;;;;5080253;28;20706;-59
2023/04/13 10:33:20;;;;;;;5.73;1.50;;;9.70;99.90;;;;;;5079728;28;20207;-63
2023/04/13 10:35:59;;;;;;;4.87;1.67;;;9.80;99.90;;;;;;5068958;28;20207;-59
2023/04/13 10:38:26;;;;;;;11.50;1.93;;;9.80;99.90;;;;;;5081230;28;20861;-60
2023/04/13 10:40:53;;;;;;;3.20;1.20;;;10.00;99.90;;;;;;5077687;28;20282;-60
2023/04/13 10:43:30;;;;;;;4.83;1.50;;;10.20;99.90;;;;;;5077529;28;20210;-59
2023/04/13 10:46:08;;;;;;;7.20;1.93;;;10.00;99.90;;;;;;5068479;28;20284;-64
2023/04/13 10:48:36;;;;;;;2.07;1.00;;;9.80;99.90;;;;;;5077185;28;20607;-59
2023/04/13 10:51:03;;;;;;;4.30;1.57;;;9.90;99.90;;;;;;5068671;28;20200;-61
2023/04/13 10:53:31;;;;;;;5.97;1.60;;;9.80;99.90;;;;;;5056080;28;20286;-59
2023/04/13 10:55:59;;;;;;;8.37;1.47;;;9.90;99.90;;;;;;5074055;28;20475;-60
2023/04/13 10:58:28;;;;;;;16.60;2.10;;;9.90;99.90;;;;;;5073543;28;20205;-59
2023/04/13 11:00:58;;;;;;;5.87;1.83;;;9.90;99.90;;;;;;5073648;28;20236;-58
2023/04/13 11:03:27;;;;;;;4.33;1.67;;;10.00;99.90;;;;;;5076864;28;20199;-59
2023/04/13 11:05:57;;;;;;;7.60;1.90;;;10.00;99.90;;;;;;5069667;28;20222;-59
2023/04/13 11:08:25;;;;;;;5.00;1.30;;;9.90;99.90;;;;;;5066293;28;20357;-59
2023/04/13 11:10:53;;;;;;;7.67;1.27;;;10.00;99.90;;;;;;5057379;28;20229;-59
2023/04/13 11:13:24;;;;;;;5.33;1.20;;;10.20;99.90;;;;;;5075225;28;20209;-59
2023/04/13 11:15:58;;;;;;;8.43;1.50;;;10.30;99.90;;;;;;5069988;28;20211;-62
2023/04/13 11:18:26;;;;;;;6.17;1.20;;;10.30;99.90;;;;;;5065898;28;20238;-60
2023/04/13 11:20:53;;;;;;;5.83;1.37;;;10.20;99.90;;;;;;5057967;28;20231;-59
2023/04/13 11:23:22;;;;;;;9.43;1.77;;;10.40;99.90;;;;;;5077850;28;20646;-59
2023/04/13 11:25:56;;;;;;;7.70;1.60;;;10.50;99.90;;;;;;5074573;28;20703;-59
2023/04/13 11:28:36;;;;;;;5.60;1.17;;;10.40;99.90;;;;;;5060266;28;20623;-59
2023/04/13 11:31:03;;;;;;;4.00;1.20;;;10.30;99.90;;;;;;5074704;28;20231;-59
2023/04/13 11:33:32;;;;;;;6.00;1.30;;;10.30;99.90;;;;;;5059825;28;20202;-59
2023/04/13 11:36:00;;;;;;;5.03;1.67;;;10.30;99.90;;;;;;5074171;28;20814;-59
2023/04/13 11:38:27;;;;;;;7.40;1.77;;;10.40;99.90;;;;;;5077987;28;20229;-59
2023/04/13 11:41:05;;;;;;;7.63;1.67;;;10.50;99.90;;;;;;5076312;28;20230;-59
2023/04/13 11:43:44;;;;;;;8.93;1.50;;;10.80;99.90;;;;;;5074787;28;20207;-59
2023/04/13 11:46:14;;;;;;;6.03;1.30;;;10.60;99.90;;;;;;5073547;28;20213;-59
2023/04/13 11:48:42;;;;;;;4.27;1.03;;;10.70;99.90;;;;;;5073109;28;20249;-58
2023/04/13 11:51:10;;;;;;;4.77;1.90;;;10.90;99.90;;;;;;5064409;28;20237;-59
2023/04/13 11:53:38;;;;;;;7.17;1.57;;;11.20;99.90;;;;;;5053475;28;20194;-59
2023/04/13 11:56:06;;;;;;;3.50;1.27;;;11.10;99.90;;;;;;5054704;28;20807;-59
2023/04/13 11:58:33;;;;;;;3.37;1.20;;;11.40;99.90;;;;;;5051757;28;20241;-59
2023/04/13 12:01:05;;;;;;;8.33;1.63;;;11.40;99.90;;;;;;5048460;28;20589;-59
2023/04/13 12:03:40;;;;;;;5.43;1.30;;;12.20;99.90;;;;;;5034037;28;20214;-59
2023/04/13 12:06:29;;;;;;;3.37;1.40;;;12.10;99.90;;;;;;5051836;28;20222;-58
2023/04/13 12:09:01;;;;;;;9.77;1.77;;;12.00;99.90;;;;;;5056605;28;20203;-59
2023/04/13 12:11:40;;;;;;;3.37;1.23;;;11.50;99.90;;;;;;5060575;28;20296;-62
2023/04/13 12:14:19;;;;;;;5.83;1.47;;;11.90;99.90;;;;;;5060747;28;20207;-59
2023/04/13 12:17:09;;;;;;;9.67;1.50;;;12.10;99.90;;;;;;5061736;28;20203;-58
2023/04/13 12:19:58;;;;;;;4.20;1.10;;;12.00;99.90;;;;;;5069087;28;20272;-60
2023/04/13 12:22:37;;;;;;;6.20;1.23;;;11.80;99.90;;;;;;5066466;28;20205;-58
2023/04/13 12:25:22;;;;;;;7.27;1.30;;;11.60;99.90;;;;;;5062975;28;20270;-59
2023/04/13 12:27:52;;;;;;;9.90;1.13;;;11.70;99.90;;;;;;5064191;28;20258;-59
2023/04/13 12:30:20;;;;;;;11.67;2.07;;;12.10;99.90;;;;;;5067934;28;20355;-59
2023/04/13 12:32:54;;;;;;;4.80;1.40;;;12.60;99.90;;;;;;5070120;28;20206;-59
2023/04/13 12:35:21;;;;;;;6.37;1.20;;;12.80;99.90;;;;;;5067856;28;20202;-61
2023/04/13 12:37:51;;;;;;;5.87;1.00;;;13.00;99.90;;;;;;5070379;28;20273;-60
2023/04/13 12:40:19;;;;;;;2.87;1.13;;;13.20;99.90;;;;;;5073669;28;20237;-60
2023/04/13 12:42:46;;;;;;;2.43;0.80;;;13.20;99.90;;;;;;5072467;28;20200;-61
2023/04/13 12:45:15;;;;;;;6.93;0.80;;;12.90;99.90;;;;;;5059350;28;20253;-61
2023/04/13 12:47:41;;;;;;;3.33;1.10;;;12.60;99.90;;;;;;5068016;28;20232;-61
2023/04/13 12:50:10;;;;;;;5.77;1.23;;;12.70;99.90;;;;;;5051387;28;20286;-60
2023/04/13 12:52:41;;;;;;;6.57;1.23;;;13.10;99.90;;;;;;5054748;28;20194;-62
2023/04/13 12:55:09;;;;;;;7.30;1.60;;;13.50;99.90;;;;;;5063697;28;20205;-60
2023/04/13 12:57:36;;;;;;;7.50;1.27;;;13.10;99.90;;;;;;5067353;28;20273;-61
2023/04/13 13:00:08;;;;;;;4.60;1.07;;;13.00;99.90;;;;;;5071984;28;20203;-60
2023/04/13 13:02:36;;;;;;;3.63;0.90;;;13.00;99.90;;;;;;5059515;28;20202;-60
2023/04/13 13:05:04;;;;;;;7.53;1.33;;;13.10;99.90;;;;;;5069937;28;20203;-61